Time;durP1;ratioP1;P1;durP2;ratioP2;P2;SDS_P1;SDS_P2;PMS_P1;PMS_P2;Temp;Humidity;BMP_temperature;BMP_pressure;BME280_temperature;BME280_humidity;BME280_pressure;Samples;Min_cycle;Max_cycle;Signal;HPM_P1;HPM_P2
2021/01/30 00:00:41;;;;;;;19.08;15.35;;;;;;;4.36;73.49;98178.06;5054877;28;20083;-86
2021/01/30 00:03:10;;;;;;;19.13;15.38;;;;;;;4.32;73.46;98186.97;5037328;28;20079;-86
2021/01/30 00:05:37;;;;;;;16.13;13.50;;;;;;;4.26;73.72;98189.00;5055304;28;20056;-86
2021/01/30 00:17:45;;;;;;;15.35;11.85;;;;;;;4.07;73.51;98211.81;5082737;22;20072;-81
2021/01/30 00:20:15;;;;;;;16.17;12.73;;;;;;;4.00;73.61;98219.94;5054934;28;20048;-81
2021/01/30 00:22:41;;;;;;;17.33;14.38;;;;;;;3.96;74.04;98223.63;5054400;28;20095;-82
2021/01/30 00:25:08;;;;;;;17.20;13.95;;;;;;;3.94;74.40;98228.09;5054474;28;20049;-82
2021/01/30 00:27:34;;;;;;;17.75;14.25;;;;;;;3.94;74.74;98235.91;5054678;28;20049;-82
2021/01/30 00:30:00;;;;;;;19.02;14.90;;;;;;;3.91;74.68;98242.13;5054261;28;20052;-82
2021/01/30 00:32:26;;;;;;;17.70;13.90;;;;;;;3.91;74.52;98251.69;5036876;28;20052;-82
2021/01/30 00:34:53;;;;;;;16.92;13.75;;;;;;;3.89;74.22;98253.53;5054479;28;20048;-81
2021/01/30 00:37:22;;;;;;;15.82;12.93;;;;;;;3.87;74.33;98257.97;5054009;28;20559;-82
2021/01/30 00:39:53;;;;;;;15.05;12.52;;;;;;;3.85;74.24;98258.06;5054422;28;20057;-82
2021/01/30 00:42:22;;;;;;;15.57;13.00;;;;;;;3.85;74.14;98257.22;5053911;28;20048;-81
2021/01/30 00:44:49;;;;;;;15.18;12.63;;;;;;;3.83;74.32;98256.47;5054080;28;20102;-82
2021/01/30 00:47:15;;;;;;;13.68;12.18;;;;;;;3.83;74.59;98269.47;5036692;28;20049;-82
2021/01/30 00:49:46;;;;;;;12.88;11.10;;;;;;;3.81;74.43;98274.75;5053376;28;20456;-82
2021/01/30 00:52:15;;;;;;;12.88;10.40;;;;;;;3.80;74.58;98275.69;5036157;28;20111;-81
2021/01/30 00:54:41;;;;;;;11.77;10.52;;;;;;;3.80;74.39;98274.84;5054196;28;20053;-81
2021/01/30 00:57:08;;;;;;;11.43;9.88;;;;;;;3.77;74.47;98287.09;5053733;28;20095;-82
2021/01/30 00:59:34;;;;;;;10.55;9.20;;;;;;;3.76;74.18;98288.03;5036272;28;20060;-82
2021/01/30 01:02:00;;;;;;;10.35;8.95;;;;;;;3.75;73.87;98288.97;5036171;28;20056;-80
2021/01/30 01:04:26;;;;;;;9.85;8.27;;;;;;;3.73;73.97;98289.94;5053979;28;20077;-82
2021/01/30 01:06:53;;;;;;;10.32;8.50;;;;;;;3.71;74.11;98297.84;5053837;28;20102;-82
2021/01/30 01:09:20;;;;;;;9.32;8.35;;;;;;;3.69;73.60;98301.44;5053724;28;20060;-82
2021/01/30 01:11:51;;;;;;;10.07;7.70;;;;;;;3.63;73.18;98305.22;5036288;28;20049;-82
2021/01/30 01:14:20;;;;;;;10.48;8.80;;;;;;;3.60;73.72;98315.78;5053900;28;20057;-82
2021/01/30 01:16:46;;;;;;;12.73;9.43;;;;;;;3.58;73.93;98308.03;5053627;28;20052;-82
2021/01/30 01:19:13;;;;;;;10.77;8.75;;;;;;;3.56;73.76;98319.44;5053415;28;20053;-82
2021/01/30 01:21:40;;;;;;;9.95;8.75;;;;;;;3.55;73.86;98328.19;5053553;28;20060;-82
2021/01/30 01:24:07;;;;;;;11.18;9.02;;;;;;;3.52;74.03;98337.81;5053596;28;20106;-82
2021/01/30 01:26:33;;;;;;;11.18;9.75;;;;;;;3.49;73.71;98340.59;5053330;28;20049;-82
2021/01/30 01:28:59;;;;;;;10.82;9.68;;;;;;;3.46;74.21;98338.13;5053567;28;20052;-83
2021/01/30 01:31:25;;;;;;;12.18;10.02;;;;;;;3.46;74.13;98342.47;5035971;28;20052;-82
2021/01/30 01:33:52;;;;;;;12.18;10.43;;;;;;;3.44;73.73;98352.97;5053537;28;20053;-81
2021/01/30 01:36:20;;;;;;;12.77;10.77;;;;;;;3.43;74.07;98348.69;5053651;28;20191;-82
2021/01/30 01:38:47;;;;;;;14.18;11.23;;;;;;;3.43;74.11;98353.88;5035829;28;20056;-82
2021/01/30 01:41:14;;;;;;;14.23;11.65;;;;;;;3.43;74.09;98338.28;5035744;28;20052;-82
2021/01/30 01:43:40;;;;;;;14.70;11.85;;;;;;;3.43;74.19;98345.25;5053266;28;20468;-82
2021/01/30 01:46:28;;;;;;;13.38;11.70;;;;;;;3.38;73.12;98343.72;5053359;28;20053;-81
2021/01/30 01:49:06;;;;;;;13.80;11.65;;;;;;;3.40;73.36;98343.63;5053187;28;20469;-82
2021/01/30 01:51:32;;;;;;;14.57;12.55;;;;;;;3.43;74.16;98356.50;5053356;28;20064;-82
2021/01/30 01:54:03;;;;;;;16.00;12.35;;;;;;;3.39;73.84;98355.81;5035775;28;20060;-82
2021/01/30 01:56:31;;;;;;;14.85;12.57;;;;;;;3.41;74.29;98352.28;5035568;28;20057;-82
2021/01/30 01:59:04;;;;;;;15.95;12.80;;;;;;;3.39;73.41;98355.81;5053224;28;20489;-82
2021/01/30 02:01:33;;;;;;;15.70;11.88;;;;;;;3.38;73.66;98369.75;5037701;28;20045;-82
2021/01/30 02:04:03;;;;;;;16.30;13.27;;;;;;;3.38;73.74;98369.75;5039840;28;20048;-81
2021/01/30 02:06:29;;;;;;;15.15;12.13;;;;;;;3.36;73.51;98376.78;5039455;28;20048;-82
2021/01/30 02:08:56;;;;;;;14.75;12.27;;;;;;;3.35;73.71;98387.25;5057064;28;20056;-82
2021/01/30 02:11:22;;;;;;;15.75;12.85;;;;;;;3.33;73.61;98381.28;5039495;28;20045;-81
2021/01/30 02:13:53;;;;;;;15.90;12.48;;;;;;;3.30;73.61;98391.84;5057216;28;20049;-82
2021/01/30 02:16:38;;;;;;;15.80;12.70;;;;;;;3.28;73.79;98391.09;5057025;28;20060;-82
2021/01/30 02:19:41;;;;;;;16.88;12.13;;;;;;;3.25;73.22;98392.03;5057203;28;20138;-82
2021/01/30 02:22:32;;;;;;;15.93;12.02;;;;;;;3.25;73.06;98392.91;5056604;28;20041;-81
2021/01/30 02:25:25;;;;;;;15.32;11.85;;;;;;;3.26;73.58;98398.97;5057005;28;20071;-82
2021/01/30 02:28:21;;;;;;;14.45;11.18;;;;;;;3.22;72.71;98405.22;5045914;28;20049;-82
2021/01/30 02:30:59;;;;;;;14.30;11.68;;;;;;;3.21;72.64;98403.53;5056966;28;20049;-82
2021/01/30 02:33:58;;;;;;;15.60;11.60;;;;;;;3.17;73.22;98407.22;5039079;28;20049;-82
2021/01/30 02:36:38;;;;;;;14.23;10.95;;;;;;;3.16;73.21;98415.91;5042726;28;20060;-82
2021/01/30 02:39:14;;;;;;;13.57;10.88;;;;;;;3.17;74.15;98423.63;5039106;28;20053;-82
2021/01/30 02:41:48;;;;;;;13.40;10.38;;;;;;;3.13;73.45;98427.28;5039124;28;20095;-82
2021/01/30 02:44:16;;;;;;;13.85;10.95;;;;;;;3.12;73.48;98423.88;5056417;28;20049;-82
2021/01/30 02:46:49;;;;;;;14.40;11.05;;;;;;;3.09;73.30;98421.41;5056413;28;20505;-82
2021/01/30 02:49:23;;;;;;;12.05;10.00;;;;;;;3.10;73.73;98440.47;5056490;28;20471;-82
2021/01/30 02:51:58;;;;;;;13.68;10.70;;;;;;;3.11;73.99;98423.94;5056504;28;20124;-82
2021/01/30 02:54:25;;;;;;;12.20;10.18;;;;;;;3.13;74.08;98432.50;5056402;28;20053;-82
2021/01/30 02:56:56;;;;;;;11.25;9.27;;;;;;;3.12;73.71;98436.03;5056568;28;20071;-82
2021/01/30 02:59:24;;;;;;;13.20;9.80;;;;;;;3.12;74.03;98442.06;5056460;28;20053;-82
2021/01/30 03:01:50;;;;;;;12.02;9.43;;;;;;;3.12;73.87;98439.47;5056167;28;20052;-82
2021/01/30 03:04:26;;;;;;;12.80;9.90;;;;;;;3.09;73.20;98442.22;5055993;28;20044;-81
2021/01/30 03:07:03;;;;;;;11.90;9.00;;;;;;;3.10;73.57;98443.88;5038093;28;20099;-82
2021/01/30 03:10:18;;;;;;;11.70;8.63;;;;;;;3.06;72.79;98449.31;5055884;28;20605;-82
2021/01/30 03:12:53;;;;;;;12.35;9.60;;;;;;;3.04;72.76;98452.00;4955348;28;20052;-82
2021/01/30 03:15:26;;;;;;;11.18;9.05;;;;;;;3.03;72.81;98457.25;4939913;29;20098;-82
2021/01/30 03:17:53;;;;;;;10.10;8.30;;;;;;;3.03;73.54;98467.66;5020745;28;20084;-81
2021/01/30 03:20:21;;;;;;;10.27;7.75;;;;;;;3.00;73.82;98466.03;5056024;28;20060;-81
2021/01/30 03:22:48;;;;;;;10.20;7.88;;;;;;;2.98;73.48;98466.13;5055696;28;20049;-82
2021/01/30 03:25:22;;;;;;;9.85;7.82;;;;;;;2.96;73.01;98467.09;5055872;28;20107;-82
2021/01/30 03:27:49;;;;;;;;;;;;;;;2.96;72.35;98465.31;5056356;28;20114;-81
2021/01/30 03:30:16;;;;;;;9.38;6.88;;;;;;;2.98;73.66;98463.50;5055809;28;19924;-81
2021/01/30 03:32:42;;;;;;;12.48;8.25;;;;;;;2.96;74.34;98470.53;5037943;28;20049;-82
2021/01/30 03:35:10;;;;;;;12.18;8.23;;;;;;;2.96;74.08;98474.91;5055716;28;20052;-82
2021/01/30 03:37:36;;;;;;;10.20;8.13;;;;;;;2.96;74.34;98478.31;5055330;28;20102;-82
2021/01/30 03:40:05;;;;;;;12.25;8.77;;;;;;;2.95;73.77;98471.44;5055395;28;20057;-82
2021/01/30 03:42:31;;;;;;;11.00;8.40;;;;;;;2.96;73.78;98488.72;5037674;28;20119;-82
2021/01/30 03:44:58;;;;;;;10.38;8.25;;;;;;;2.94;73.82;98487.97;5055165;28;20051;-82
2021/01/30 03:47:24;;;;;;;10.68;8.55;;;;;;;2.94;73.92;98490.56;5055208;28;20057;-82
2021/01/30 03:49:50;;;;;;;12.50;9.10;;;;;;;2.93;73.57;98495.84;5037569;28;20049;-82
2021/01/30 03:52:16;;;;;;;14.05;9.85;;;;;;;2.91;73.94;98495.06;5054218;28;20091;-81
2021/01/30 03:54:43;;;;;;;14.05;9.82;;;;;;;2.90;73.56;98504.63;5036470;28;20452;-82
2021/01/30 03:57:09;;;;;;;11.45;9.20;;;;;;;2.88;73.47;98509.06;5055100;28;20060;-81
2021/01/30 03:59:35;;;;;;;11.38;8.73;;;;;;;2.87;73.74;98512.53;5037516;28;20045;-82
2021/01/30 04:02:01;;;;;;;11.77;9.05;;;;;;;2.87;73.84;98509.94;5054919;28;20049;-81
2021/01/30 04:04:27;;;;;;;12.77;9.15;;;;;;;2.85;73.43;98519.59;5054841;28;20053;-82
2021/01/30 04:06:54;;;;;;;12.20;9.18;;;;;;;2.85;74.01;98516.97;5054971;28;20055;-81
2021/01/30 04:09:21;;;;;;;13.48;9.18;;;;;;;2.86;74.10;98516.06;5054896;28;20049;-82
2021/01/30 04:11:50;;;;;;;12.23;8.38;;;;;;;2.88;73.97;98514.25;5037526;28;20405;-82
2021/01/30 04:14:17;;;;;;;11.02;8.30;;;;;;;2.89;73.98;98518.53;5054629;28;20045;-82
2021/01/30 04:16:43;;;;;;;12.45;9.02;;;;;;;2.90;73.63;98521.94;5037010;28;20102;-82
2021/01/30 04:19:09;;;;;;;13.35;9.32;;;;;;;2.90;73.61;98520.22;5054881;28;20053;-82
2021/01/30 04:21:35;;;;;;;10.43;8.48;;;;;;;2.92;74.05;98517.53;5037063;28;20045;-81
2021/01/30 04:24:02;;;;;;;11.20;7.95;;;;;;;2.93;74.07;98519.22;5053975;28;20060;-82
2021/01/30 04:26:28;;;;;;;12.05;9.07;;;;;;;2.93;74.37;98517.47;5037084;28;20045;-82
2021/01/30 04:28:54;;;;;;;13.57;9.75;;;;;;;2.94;74.07;98526.97;5036758;28;20079;-82
2021/01/30 04:31:22;;;;;;;12.68;9.43;;;;;;;2.96;74.03;98532.09;5054576;28;20103;-82
2021/01/30 04:33:50;;;;;;;12.50;8.95;;;;;;;2.97;73.82;98526.81;5054655;28;20056;-82
2021/01/30 04:36:17;;;;;;;13.82;10.07;;;;;;;2.96;73.80;98527.72;5036401;28;20045;-81
2021/01/30 04:38:44;;;;;;;13.45;9.90;;;;;;;2.97;73.67;98523.38;5054230;28;20049;-82
2021/01/30 04:41:21;;;;;;;14.80;9.77;;;;;;;2.98;74.07;98527.66;5054286;28;20056;-81
2021/01/30 04:43:59;;;;;;;12.18;9.05;;;;;;;2.95;73.40;98520.84;5054408;28;20045;-82
2021/01/30 04:46:31;;;;;;;14.32;9.25;;;;;;;2.98;73.79;98523.31;5054339;28;20118;-82
2021/01/30 04:49:13;;;;;;;13.00;9.10;;;;;;;2.94;72.99;98519.16;5036864;28;20049;-82
2021/01/30 04:51:54;;;;;;;13.43;9.02;;;;;;;2.93;72.45;98524.41;5036195;28;20106;-82
2021/01/30 04:54:53;;;;;;;14.70;8.75;;;;;;;2.91;72.28;98536.66;5054059;28;20103;-82
2021/01/30 04:57:37;;;;;;;12.52;8.50;;;;;;;2.91;72.67;98541.84;5053945;28;20620;-82
2021/01/30 05:00:30;;;;;;;13.02;8.80;;;;;;;2.88;72.14;98544.59;5053997;28;20115;-81
2021/01/30 05:03:00;;;;;;;12.88;8.82;;;;;;;2.88;73.26;98544.59;5053993;28;20066;-81
2021/01/30 05:05:27;;;;;;;12.77;8.73;;;;;;;2.86;73.28;98553.31;5054097;28;20049;-81
2021/01/30 05:07:59;;;;;;;13.13;8.82;;;;;;;2.84;73.44;98543.91;5053613;28;20420;-82
2021/01/30 05:10:31;;;;;;;11.88;8.48;;;;;;;2.82;72.88;98543.97;5053956;28;20078;-81
2021/01/30 05:13:22;;;;;;;13.30;9.15;;;;;;;2.82;73.53;98548.31;5053647;28;20095;-82
2021/01/30 05:16:01;;;;;;;12.68;9.23;;;;;;;2.82;73.08;98553.50;5053315;28;20444;-82
2021/01/30 05:18:33;;;;;;;15.23;9.85;;;;;;;2.79;73.17;98559.69;5053473;28;20079;-82
2021/01/30 05:21:07;;;;;;;14.52;9.73;;;;;;;2.78;73.62;98562.34;5035976;28;20135;-82
2021/01/30 05:23:34;;;;;;;15.70;9.98;;;;;;;2.80;73.40;98576.13;5053665;28;20107;-82
2021/01/30 05:26:10;;;;;;;16.48;10.80;;;;;;;2.77;72.97;98574.50;5053723;28;20053;-82
2021/01/30 05:28:52;;;;;;;14.70;9.77;;;;;;;2.76;73.43;98575.41;5053547;28;20048;-82
2021/01/30 05:31:18;;;;;;;15.07;10.07;;;;;;;2.81;74.14;98575.22;5053324;28;20502;-81
2021/01/30 05:33:59;;;;;;;16.20;11.13;;;;;;;2.78;72.79;98581.38;5053663;28;20045;-81
2021/01/30 05:36:44;;;;;;;15.43;10.88;;;;;;;2.79;72.83;98585.66;5035589;28;20395;-82
2021/01/30 05:39:20;;;;;;;16.02;10.80;;;;;;;2.79;72.99;98583.06;5053784;28;20049;-81
2021/01/30 05:42:02;;;;;;;15.10;10.15;;;;;;;2.80;72.39;98573.53;5035874;28;20102;-82
2021/01/30 05:44:31;;;;;;;14.93;10.43;;;;;;;2.80;73.74;98576.94;5053113;28;20053;-82
2021/01/30 05:46:59;;;;;;;18.70;11.38;;;;;;;2.81;73.90;98573.44;5035882;28;20128;-82
2021/01/30 05:49:31;;;;;;;18.52;11.55;;;;;;;2.82;73.83;98566.50;5035831;28;20124;-81
2021/01/30 05:52:19;;;;;;;18.23;12.10;;;;;;;2.79;73.28;98562.28;5053399;28;20041;-80
2021/01/30 05:54:46;;;;;;;14.90;10.38;;;;;;;2.82;73.41;98559.56;5053496;28;20052;-81
2021/01/30 05:57:16;;;;;;;14.82;10.07;;;;;;;2.83;73.49;98570.78;5053471;28;20075;-81
2021/01/30 05:59:47;;;;;;;16.20;10.60;;;;;;;2.81;73.51;98573.44;5053271;28;20107;-82
2021/01/30 06:02:32;;;;;;;13.98;9.95;;;;;;;2.79;72.65;98566.63;5035636;28;20056;-81
2021/01/30 06:04:58;;;;;;;15.20;10.43;;;;;;;2.82;73.66;98569.94;5053212;28;20493;-82
2021/01/30 06:07:37;;;;;;;16.17;11.73;;;;;;;2.79;72.96;98574.41;5035801;28;20056;-81
2021/01/30 06:10:27;;;;;;;16.27;10.95;;;;;;;2.78;72.26;98575.34;5053223;28;20111;-82
2021/01/30 06:13:10;;;;;;;16.15;10.25;;;;;;;2.78;72.55;98575.34;5035449;28;20490;-82
2021/01/30 06:15:39;;;;;;;15.65;10.20;;;;;;;2.80;73.50;98576.94;5035406;28;20072;-81
2021/01/30 07:22:42;;;;;;;13.77;9.88;;;;;;;2.71;74.15;98606.81;5241231;23;20924;-83
2021/01/30 07:25:19;;;;;;;15.25;10.02;;;;;;;2.72;73.46;98605.88;4975423;28;20043;-82
2021/01/30 07:28:05;;;;;;;15.70;10.77;;;;;;;2.71;73.78;98606.81;4968922;28;20121;-83
2021/01/30 07:30:45;;;;;;;16.73;10.68;;;;;;;2.74;73.54;98609.25;4976964;28;20566;-85
2021/01/30 09:07:48;;;;;;;14.55;8.55;;;;;;;2.73;73.13;98617.13;5110921;23;20042;-83
2021/01/30 09:10:28;;;;;;;13.65;7.97;;;;;;;2.74;73.23;98622.22;4975380;28;20047;-82
2021/01/30 09:18:22;;;;;;;12.75;8.43;;;;;;;2.85;73.94;98624.38;5673485;23;20483;-81
2021/01/30 09:21:11;;;;;;;14.77;9.73;;;;;;;2.90;73.49;98629.38;4974792;28;20050;-80
2021/01/30 09:23:54;;;;;;;13.70;8.90;;;;;;;2.97;73.98;98632.56;4974852;28;20069;-80
2021/01/30 09:26:41;;;;;;;13.88;8.38;;;;;;;3.03;74.53;98634.03;4974990;28;20492;-80
2021/01/30 09:29:08;;;;;;;14.02;8.40;;;;;;;3.09;74.61;98638.97;4974771;28;20114;-80
2021/01/30 09:31:35;;;;;;;12.35;7.95;;;;;;;3.12;74.75;98641.44;4974934;28;20051;-80
2021/01/30 09:34:20;;;;;;;13.00;8.45;;;;;;;3.11;73.57;98647.56;4974677;28;20086;-81
2021/01/30 09:36:49;;;;;;;14.27;9.02;;;;;;;3.18;74.45;98651.53;4974687;28;20106;-79
2021/01/30 09:39:26;;;;;;;14.05;9.27;;;;;;;3.17;73.64;98642.06;4960452;28;20491;-80
2021/01/30 09:42:17;;;;;;;15.40;9.38;;;;;;;3.19;73.22;98645.47;4954452;29;20138;-80
2021/01/30 09:44:44;;;;;;;14.18;9.02;;;;;;;3.24;74.57;98638.28;4954759;29;20055;-80
2021/01/30 09:47:17;;;;;;;13.93;9.27;;;;;;;3.26;73.75;98640.81;4954582;28;20110;-80
2021/01/30 09:49:48;;;;;;;14.57;8.82;;;;;;;3.29;74.25;98642.44;4953287;29;20492;-80
2021/01/30 09:52:16;;;;;;;15.27;9.32;;;;;;;3.32;74.18;98632.72;4953924;29;20047;-80
2021/01/30 09:54:45;;;;;;;13.10;8.65;;;;;;;3.36;74.37;98636.88;4954767;29;20047;-80
2021/01/30 09:57:22;;;;;;;14.65;9.57;;;;;;;3.36;73.07;98638.63;4954614;28;20055;-80
2021/01/30 10:00:03;;;;;;;13.60;9.30;;;;;;;3.39;73.53;98638.50;4954915;29;20130;-81
2021/01/30 10:02:29;;;;;;;13.93;9.35;;;;;;;3.45;74.49;98635.63;4954288;29;20062;-80
2021/01/30 10:05:07;;;;;;;14.05;9.10;;;;;;;3.44;73.17;98626.13;4953558;29;20110;-80
2021/01/30 10:07:33;;;;;;;14.52;9.52;;;;;;;3.49;74.68;98631.97;4954554;28;20055;-80
2021/01/30 10:10:00;;;;;;;15.77;10.52;;;;;;;3.51;74.75;98630.13;4954711;28;20069;-80
2021/01/30 10:12:31;;;;;;;15.13;9.43;;;;;;;3.56;74.17;98631.69;4953804;29;20098;-81
2021/01/30 10:14:58;;;;;;;12.45;8.73;;;;;;;3.59;74.05;98629.78;4955420;29;20051;-81
2021/01/30 10:17:38;;;;;;;15.35;9.93;;;;;;;3.59;73.57;98621.13;4954622;28;20055;-80
2021/01/30 10:20:15;;;;;;;12.27;8.30;;;;;;;3.61;73.22;98620.16;4953572;29;20611;-80
2021/01/30 10:22:50;;;;;;;12.38;8.30;;;;;;;3.66;74.40;98622.53;4956318;28;20059;-79
2021/01/30 10:25:24;;;;;;;12.30;8.32;;;;;;;3.69;73.69;98617.19;4958891;29;20468;-80
2021/01/30 10:28:11;;;;;;;13.32;8.18;;;;;;;3.71;72.91;98619.72;4958453;29;20094;-80
2021/01/30 10:30:38;;;;;;;11.63;7.93;;;;;;;3.74;73.76;98615.19;4958455;29;20420;-80
2021/01/30 10:33:09;;;;;;;12.63;7.88;;;;;;;3.73;73.67;98615.25;4957638;28;20051;-80
2021/01/30 10:35:49;;;;;;;11.07;7.97;;;;;;;3.74;73.87;98611.78;4958395;29;20102;-80
2021/01/30 10:38:20;;;;;;;12.05;8.02;;;;;;;3.74;74.13;98615.19;4958446;29;20055;-80
2021/01/30 10:40:49;;;;;;;12.57;8.13;;;;;;;3.77;74.29;98615.06;4978125;28;20051;-80
2021/01/30 10:43:43;;;;;;;12.18;7.68;;;;;;;3.76;72.93;98609.94;4977012;28;20130;-80
2021/01/30 10:46:17;;;;;;;12.80;8.45;;;;;;;3.78;73.40;98608.09;4977863;28;20050;-80
2021/01/30 10:48:44;;;;;;;13.75;9.05;;;;;;;3.83;74.86;98607.88;4977455;28;20050;-80
2021/01/30 10:51:22;;;;;;;13.95;9.18;;;;;;;3.82;73.41;98607.03;4977373;28;20507;-79
2021/01/30 10:53:49;;;;;;;12.43;8.48;;;;;;;3.89;74.80;98612.81;4976773;28;20046;-80
2021/01/30 10:56:28;;;;;;;15.02;9.15;;;;;;;3.89;73.12;98616.22;4977324;28;20058;-79
2021/01/30 10:58:56;;;;;;;13.27;9.13;;;;;;;3.94;74.01;98615.16;4977428;28;20050;-80
2021/01/30 11:01:30;;;;;;;12.40;8.63;;;;;;;3.94;74.40;98607.34;4977250;28;20081;-80
2021/01/30 11:04:02;;;;;;;13.55;9.45;;;;;;;3.94;73.83;98604.75;4976776;28;20419;-81
2021/01/30 11:06:31;;;;;;;13.30;9.30;;;;;;;3.96;74.16;98608.97;4959987;28;20101;-80
2021/01/30 11:09:11;;;;;;;12.63;9.02;;;;;;;4.01;74.77;98606.16;4976885;28;20055;-80
2021/01/30 11:11:38;;;;;;;11.70;8.48;;;;;;;4.08;74.90;98606.69;4977325;28;20085;-80
2021/01/30 11:14:14;;;;;;;13.38;9.18;;;;;;;4.11;73.76;98603.94;4976307;28;20062;-80
2021/01/30 11:16:42;;;;;;;12.50;8.82;;;;;;;4.21;74.56;98596.50;4976960;28;20055;-80
2021/01/30 11:19:33;;;;;;;13.25;9.05;;;;;;;4.23;73.06;98600.72;4976678;28;20093;-79
2021/01/30 11:22:02;;;;;;;14.48;9.55;;;;;;;4.30;73.68;98593.47;4976330;28;20065;-78
2021/01/30 11:24:49;;;;;;;14.50;9.77;;;;;;;4.32;72.91;98589.00;4976969;28;20058;-79
2021/01/30 11:27:33;;;;;;;14.68;10.30;;;;;;;4.40;74.10;98575.59;4977387;28;20050;-79
2021/01/30 11:30:11;;;;;;;12.52;8.68;;;;;;;4.53;74.19;98576.63;4976986;28;20455;-80
2021/01/30 11:33:01;;;;;;;14.38;9.13;;;;;;;4.76;77.14;98571.16;4976061;28;20050;-80
2021/01/30 11:35:36;;;;;;;16.50;10.93;;;;;;;4.98;76.16;98570.03;4977568;28;20051;-79
2021/01/30 11:38:09;;;;;;;14.77;10.00;;;;;;;5.23;76.51;98569.56;4976353;28;20117;-80
2021/01/30 11:40:35;;;;;;;;;;;;;;;5.46;74.56;98568.31;4977360;28;20061;-79
2021/01/30 11:43:03;;;;;;;11.98;8.43;;;;;;;5.70;75.96;98561.81;4975962;28;19965;-79
2021/01/30 11:45:29;;;;;;;12.52;9.20;;;;;;;5.86;76.12;98560.00;4976474;28;20327;-80
2021/01/30 11:47:56;;;;;;;14.32;8.95;;;;;;;6.04;75.95;98564.28;4976450;28;20050;-79
2021/01/30 11:50:22;;;;;;;11.13;7.70;;;;;;;6.15;74.00;98568.91;4976209;28;20054;-78
2021/01/30 11:52:49;;;;;;;10.65;8.02;;;;;;;6.19;72.33;98562.56;4975997;28;20054;-79
2021/01/30 11:55:15;;;;;;;11.40;8.77;;;;;;;6.16;71.58;98554.94;4976554;28;20058;-80
2021/01/30 11:57:41;;;;;;;12.23;8.75;;;;;;;6.08;71.58;98561.44;4976431;28;20458;-78
2021/01/30 12:00:09;;;;;;;14.05;9.70;;;;;;;6.00;71.42;98568.81;4976125;28;20055;-79
2021/01/30 12:02:38;;;;;;;14.45;9.85;;;;;;;5.89;71.14;98558.13;4975479;28;20097;-79
2021/01/30 12:05:07;;;;;;;16.45;10.20;;;;;;;5.82;71.19;98560.25;4975917;28;20050;-78
2021/01/30 12:07:33;;;;;;;14.05;9.70;;;;;;;5.69;70.90;98563.56;4975897;28;20054;-79
2021/01/30 12:09:59;;;;;;;13.80;9.40;;;;;;;5.59;71.04;98573.69;4976002;28;20059;-79
2021/01/30 12:12:26;;;;;;;16.35;9.80;;;;;;;5.47;71.67;98566.53;4975720;28;20058;-79
2021/01/30 12:14:52;;;;;;;14.50;10.15;;;;;;;5.39;71.58;98563.50;4975842;28;20425;-80
2021/01/30 12:17:39;;;;;;;14.13;9.70;;;;;;;5.29;69.93;98568.38;4975727;28;20051;-79
2021/01/30 12:20:08;;;;;;;14.57;10.02;;;;;;;5.31;73.16;98561.34;4975965;28;20055;-78
2021/01/30 12:22:36;;;;;;;15.68;9.60;;;;;;;5.34;73.95;98561.13;4975496;28;20047;-79
2021/01/30 12:25:05;;;;;;;14.85;10.30;;;;;;;5.38;73.21;98556.63;4975656;28;20066;-79
2021/01/30 12:27:31;;;;;;;16.13;10.60;;;;;;;5.44;73.78;98561.47;4975497;28;20114;-80
2021/01/30 12:29:57;;;;;;;13.55;9.68;;;;;;;5.48;73.58;98557.78;4975451;28;20109;-79
2021/01/30 12:32:24;;;;;;;15.13;10.65;;;;;;;5.52;73.22;98554.06;4974952;28;20105;-79
2021/01/30 12:34:50;;;;;;;14.35;10.00;;;;;;;5.55;73.00;98550.44;4975640;28;20050;-79
2021/01/30 12:37:17;;;;;;;18.80;10.90;;;;;;;5.56;72.59;98549.50;4958227;28;20050;-79
2021/01/30 12:39:43;;;;;;;14.82;10.27;;;;;;;5.56;72.29;98533.84;4975680;28;20051;-79
2021/01/30 12:42:09;;;;;;;14.20;10.10;;;;;;;5.54;71.98;98547.00;4974838;28;20081;-79
2021/01/30 12:44:35;;;;;;;17.05;11.05;;;;;;;5.50;71.45;98540.28;4974508;28;20500;-79
2021/01/30 12:47:02;;;;;;;16.27;10.77;;;;;;;5.45;71.33;98532.69;4975423;28;20054;-80
2021/01/30 12:49:28;;;;;;;14.70;10.55;;;;;;;5.39;71.34;98532.19;4975367;28;20047;-79
2021/01/30 12:51:54;;;;;;;15.25;9.90;;;;;;;5.31;70.96;98533.44;4975189;28;20475;-79
2021/01/30 12:54:22;;;;;;;14.93;9.80;;;;;;;5.25;71.14;98532.94;4974788;28;20059;-79
2021/01/30 12:56:49;;;;;;;14.68;10.35;;;;;;;5.18;71.57;98533.28;4975379;28;20456;-79
2021/01/30 12:59:15;;;;;;;17.10;11.15;;;;;;;5.13;71.88;98532.72;4974814;28;20055;-79
2021/01/30 13:01:41;;;;;;;18.25;11.57;;;;;;;5.09;71.62;98532.03;4975191;28;20051;-79
2021/01/30 13:04:07;;;;;;;16.23;11.02;;;;;;;5.03;71.40;98527.16;4974456;28;20101;-79
2021/01/30 13:06:34;;;;;;;17.80;11.52;;;;;;;4.98;71.87;98534.38;4975186;28;20051;-79
2021/01/30 13:09:01;;;;;;;17.25;10.35;;;;;;;4.93;71.76;98531.16;4974853;28;20463;-80
2021/01/30 13:11:27;;;;;;;17.83;12.60;;;;;;;4.91;72.17;98519.97;4975222;28;20055;-80
2021/01/30 13:13:54;;;;;;;19.55;12.07;;;;;;;4.90;72.43;98515.69;4974086;28;20050;-79
2021/01/30 13:16:20;;;;;;;18.13;11.63;;;;;;;4.90;72.34;98520.91;4974938;28;20054;-79
2021/01/30 13:18:46;;;;;;;17.77;11.98;;;;;;;4.90;72.24;98510.47;4974527;28;20050;-79
2021/01/30 13:21:12;;;;;;;17.83;11.35;;;;;;;4.91;72.33;98512.16;4974771;28;20058;-79
2021/01/30 13:23:38;;;;;;;18.25;12.07;;;;;;;4.90;72.45;98500.88;4974031;28;20101;-79
2021/01/30 13:26:05;;;;;;;17.88;12.07;;;;;;;4.93;72.61;98502.47;4974592;28;20057;-78
2021/01/30 13:28:32;;;;;;;17.80;12.23;;;;;;;4.93;72.66;98499.88;4974448;28;20051;-78
2021/01/30 13:30:59;;;;;;;17.23;10.98;;;;;;;4.97;72.21;98500.56;4974954;28;20046;-79
2021/01/30 13:33:25;;;;;;;17.85;11.35;;;;;;;4.98;72.37;98503.09;4974082;28;20089;-79
2021/01/30 13:35:52;;;;;;;17.52;11.70;;;;;;;4.98;72.33;98503.09;4974666;28;20086;-80
2021/01/30 13:38:18;;;;;;;19.60;11.38;;;;;;;4.97;71.98;98506.59;4974776;28;20102;-79
2021/01/30 13:40:44;;;;;;;18.92;11.95;;;;;;;4.97;72.37;98506.59;4957192;28;20110;-79
2021/01/30 13:43:10;;;;;;;18.38;11.80;;;;;;;4.97;72.07;98509.19;4973875;28;20050;-80
2021/01/30 13:45:36;;;;;;;16.77;10.88;;;;;;;4.96;71.84;98507.53;4974645;28;20047;-79
2021/01/30 13:48:02;;;;;;;21.15;11.63;;;;;;;4.95;71.77;98516.28;4974602;28;20058;-78
2021/01/30 13:50:29;;;;;;;17.60;11.13;;;;;;;4.92;71.60;98519.91;4974594;28;20419;-79
2021/01/30 13:52:56;;;;;;;18.70;11.43;;;;;;;4.88;71.18;98513.16;4973979;28;20158;-80
2021/01/30 13:55:22;;;;;;;17.98;10.80;;;;;;;4.80;70.80;98520.56;4974431;28;20058;-78
2021/01/30 13:57:48;;;;;;;19.80;11.93;;;;;;;4.71;71.23;98521.88;4978664;28;20451;-79
2021/01/30 14:00:18;;;;;;;19.35;11.30;;;;;;;4.61;70.64;98518.06;4978708;28;20419;-79
2021/01/30 14:02:45;;;;;;;17.52;11.45;;;;;;;4.52;71.13;98522.84;4977560;28;20491;-79
2021/01/30 14:05:13;;;;;;;18.85;11.77;;;;;;;4.44;70.94;98517.19;4978355;28;20051;-79
2021/01/30 14:07:40;;;;;;;18.23;11.25;;;;;;;4.36;71.01;98521.94;4960880;28;20081;-79
2021/01/30 14:10:10;;;;;;;18.92;10.93;;;;;;;4.27;70.68;98526.69;4944887;28;20420;-79
2021/01/30 14:12:37;;;;;;;17.02;11.05;;;;;;;4.20;71.42;98525.34;4978095;28;20412;-79
2021/01/30 14:15:04;;;;;;;16.85;11.05;;;;;;;4.15;71.60;98527.34;4978175;28;20058;-79
2021/01/30 14:17:30;;;;;;;18.45;11.07;;;;;;;4.10;71.73;98529.31;4977985;28;20051;-79
2021/01/30 14:19:57;;;;;;;18.77;10.93;;;;;;;4.05;71.99;98529.56;4978074;28;20086;-79
2021/01/30 14:22:23;;;;;;;17.05;11.10;;;;;;;4.00;71.60;98535.00;4959882;28;20055;-79
2021/01/30 14:24:49;;;;;;;20.73;11.32;;;;;;;3.96;71.76;98535.25;4977989;28;20074;-79
2021/01/30 14:27:15;;;;;;;18.63;11.77;;;;;;;3.91;71.87;98538.06;4977819;28;20058;-79
2021/01/30 14:29:43;;;;;;;19.98;12.23;;;;;;;3.86;71.83;98540.91;4977760;28;20130;-79
2021/01/30 14:32:09;;;;;;;17.98;10.95;;;;;;;3.84;72.18;98536.66;4977309;28;20067;-79
2021/01/30 14:34:36;;;;;;;19.95;11.45;;;;;;;3.80;71.96;98535.97;4978016;28;20055;-80
2021/01/30 14:37:02;;;;;;;19.73;12.20;;;;;;;3.77;72.05;98541.31;4977520;28;20058;-78
2021/01/30 14:39:28;;;;;;;19.63;12.07;;;;;;;3.74;72.52;98542.31;4960557;28;20050;-79
2021/01/30 14:41:54;;;;;;;21.02;12.93;;;;;;;3.71;72.25;98539.03;4977539;28;20065;-78